createdAt,value
2022-12-15T00:00:47.561Z,78.01
2022-12-15T00:03:10.279Z,78.05
2022-12-15T00:05:32.539Z,77.45
2022-12-15T00:07:54.401Z,77.83
2022-12-15T00:10:23.157Z,77.79
2022-12-15T00:12:47.455Z,78.11
2022-12-15T00:15:13.817Z,78.08
2022-12-15T00:17:53.173Z,77.56
2022-12-15T00:20:22.822Z,77.53
2022-12-15T00:22:44.112Z,78.58
2022-12-15T00:25:06.385Z,78.30
2022-12-15T00:27:34.831Z,77.84
2022-12-15T00:29:55.450Z,78.51
2022-12-15T00:32:17.159Z,78.98
2022-12-15T00:34:50.673Z,78.83
2022-12-15T00:37:12.259Z,78.81
2022-12-15T00:39:18.247Z,78.35
2022-12-15T00:41:29.326Z,78.11
2022-12-15T00:43:36.386Z,78.92
2022-12-15T00:45:57.347Z,78.58
2022-12-15T00:48:06.419Z,78.51
2022-12-15T00:50:27.820Z,78.47
2022-12-15T00:52:51.354Z,78.06
2022-12-15T00:55:15.163Z,78.40
2022-12-15T00:57:47.838Z,78.70
2022-12-15T01:00:16.951Z,78.28
2022-12-15T01:02:38.519Z,78.05
2022-12-15T01:05:03.263Z,78.74
2022-12-15T01:07:24.618Z,78.50
2022-12-15T01:09:45.200Z,78.32
2022-12-15T01:12:38.699Z,78.42
2022-12-15T01:15:15.138Z,78.62
2022-12-15T01:17:46.645Z,78.71
2022-12-15T01:20:10.071Z,78.71
2022-12-15T01:22:12.945Z,78.32
2022-12-15T01:24:15.817Z,78.59
2022-12-15T01:26:18.693Z,78.57
2022-12-15T01:28:42.460Z,78.40
2022-12-15T01:30:50.897Z,78.27
2022-12-15T01:32:59.590Z,78.97
2022-12-15T01:35:01.500Z,78.49
2022-12-15T01:37:03.409Z,78.82
2022-12-15T01:39:07.402Z,78.91
2022-12-15T01:41:12.965Z,78.66
2022-12-15T01:43:24.717Z,79.27
2022-12-15T01:45:31.204Z,78.83
2022-12-15T01:47:50.165Z,78.84
2022-12-15T01:50:03.063Z,78.68
2022-12-15T01:52:31.665Z,78.62
2022-12-15T01:54:50.270Z,78.36
2022-12-15T01:57:03.267Z,78.95
2022-12-15T01:59:20.659Z,78.38
2022-12-15T02:01:38.615Z,78.97
2022-12-15T02:03:44.327Z,78.84
2022-12-15T02:05:56.366Z,79.04
2022-12-15T02:08:05.244Z,78.61
2022-12-15T02:10:11.383Z,78.95
2022-12-15T02:12:39.773Z,78.79
2022-12-15T02:14:58.643Z,79.23
2022-12-15T02:17:30.872Z,79.16
2022-12-15T02:20:11.183Z,78.75
2022-12-15T02:22:54.774Z,78.09
2022-12-15T02:25:20.593Z,78.44
2022-12-15T02:27:53.618Z,79.07
2022-12-15T02:30:17.257Z,78.63
2022-12-15T02:32:47.924Z,79.08
2022-12-15T02:35:01.622Z,78.68
2022-12-15T02:37:14.856Z,78.87
2022-12-15T02:39:18.919Z,79.04
2022-12-15T02:41:46.412Z,78.76
2022-12-15T02:43:48.479Z,78.61
2022-12-15T02:46:19.707Z,78.59
2022-12-15T02:48:29.336Z,78.78
2022-12-15T02:51:00.794Z,78.56
2022-12-15T02:53:31.755Z,78.31
2022-12-15T02:55:50.233Z,78.57
2022-12-15T02:58:05.429Z,78.58
2022-12-15T03:00:11.415Z,78.85
2022-12-15T03:02:25.257Z,78.29
2022-12-15T03:04:28.090Z,77.78
2022-12-15T03:06:40.117Z,78.14
2022-12-15T03:08:51.327Z,79.03
2022-12-15T03:10:54.831Z,78.77
2022-12-15T03:13:03.631Z,79.03
2022-12-15T03:15:08.333Z,79.34
2022-12-15T03:17:15.233Z,79.38
2022-12-15T03:19:39.935Z,78.71
2022-12-15T03:21:43.893Z,79.30
2022-12-15T03:23:54.843Z,79.42
2022-12-15T03:25:59.832Z,79.60
2022-12-15T03:28:13.600Z,79.48
2022-12-15T03:30:17.691Z,79.22
2022-12-15T03:32:24.733Z,79.28
2022-12-15T03:34:35.610Z,78.83
2022-12-15T03:36:44.164Z,79.21
2022-12-15T03:38:51.876Z,79.32
2022-12-15T03:40:53.819Z,79.86
2022-12-15T03:42:58.902Z,79.46
2022-12-15T03:45:31.424Z,79.11
2022-12-15T03:47:45.425Z,79.22
2022-12-15T03:49:47.297Z,80.05
2022-12-15T03:51:55.293Z,80.21
2022-12-15T03:53:59.229Z,79.81
2022-12-15T03:56:07.664Z,80.31
2022-12-15T03:58:12.674Z,80.08
2022-12-15T04:00:25.917Z,79.73
2022-12-15T04:02:34.389Z,79.46
2022-12-15T04:04:44.379Z,79.82
2022-12-15T04:06:51.382Z,79.92
2022-12-15T04:09:09.682Z,80.04
2022-12-15T04:11:11.628Z,79.94
2022-12-15T04:13:14.545Z,80.06
2022-12-15T04:15:29.598Z,79.62
2022-12-15T04:17:38.035Z,80.12
2022-12-15T04:20:09.348Z,79.84
2022-12-15T04:22:18.121Z,79.33
2022-12-15T04:24:40.659Z,79.26
2022-12-15T04:27:04.144Z,79.79
2022-12-15T04:29:26.663Z,80.05
2022-12-15T04:31:52.058Z,80.31
2022-12-15T04:34:19.208Z,80.03
2022-12-15T04:36:40.757Z,79.94
2022-12-15T04:39:01.379Z,80.27
2022-12-15T04:41:24.078Z,80.30
2022-12-15T04:44:15.904Z,80.49
2022-12-15T04:46:36.449Z,80.19
2022-12-15T04:48:58.158Z,80.42
2022-12-15T04:51:25.110Z,79.76
2022-12-15T04:53:45.509Z,79.67
2022-12-15T04:56:18.893Z,80.38
2022-12-15T04:58:44.546Z,80.27
2022-12-15T05:01:30.555Z,79.88
2022-12-15T05:04:00.725Z,80.00
2022-12-15T05:06:23.523Z,80.58
2022-12-15T05:08:51.108Z,80.27
2022-12-15T05:11:17.876Z,79.89
2022-12-15T05:13:53.462Z,80.11
2022-12-15T05:16:13.750Z,80.42
2022-12-15T05:18:42.148Z,79.73
2022-12-15T05:21:02.283Z,80.02
2022-12-15T05:23:30.016Z,79.81
2022-12-15T05:25:57.755Z,79.82
2022-12-15T05:28:30.197Z,80.11
2022-12-15T05:31:12.454Z,80.29
2022-12-15T05:33:14.181Z,80.63
2022-12-15T05:35:43.991Z,80.75
2022-12-15T05:38:10.639Z,79.91
2022-12-15T05:40:45.984Z,80.19
2022-12-15T05:43:01.905Z,80.44
2022-12-15T05:45:18.138Z,80.56
2022-12-15T05:47:32.020Z,80.54
2022-12-15T05:49:35.963Z,80.25
2022-12-15T05:51:59.801Z,80.19
2022-12-15T05:54:19.969Z,80.28
2022-12-15T05:56:38.193Z,80.35
2022-12-15T05:58:58.870Z,80.44
2022-12-15T06:01:07.860Z,80.22
2022-12-15T06:03:43.974Z,80.01
2022-12-15T06:05:56.446Z,80.17
2022-12-15T06:08:15.157Z,79.49
2022-12-15T06:10:23.943Z,79.30
2022-12-15T06:12:50.455Z,80.36
2022-12-15T06:15:39.914Z,79.47
2022-12-15T06:17:49.510Z,79.71
2022-12-15T06:19:55.830Z,80.07
2022-12-15T06:25:19.675Z,79.55
2022-12-15T06:27:37.982Z,80.22
2022-12-15T06:29:40.970Z,80.04
2022-12-15T06:32:12.000Z,79.61
2022-12-15T06:34:18.910Z,79.71
2022-12-15T06:36:25.061Z,79.38
2022-12-15T06:38:29.352Z,79.60
2022-12-15T06:40:41.850Z,79.46
2022-12-15T06:42:54.803Z,79.22
2022-12-15T06:44:58.687Z,79.10
2022-12-15T06:47:07.702Z,78.87
2022-12-15T06:49:16.942Z,79.57
2022-12-15T06:51:28.354Z,78.80
2022-12-15T06:53:52.470Z,78.85
2022-12-15T06:56:28.825Z,79.29
2022-12-15T06:58:58.391Z,79.49
2022-12-15T07:01:15.716Z,79.23
2022-12-15T07:03:26.352Z,79.55
2022-12-15T07:05:29.412Z,79.54
2022-12-15T07:07:41.235Z,79.06
2022-12-15T07:10:15.060Z,78.96
2022-12-15T07:12:26.005Z,79.31
2022-12-15T07:14:28.038Z,79.15
2022-12-15T07:17:11.164Z,79.00
2022-12-15T07:19:23.262Z,79.55
2022-12-15T07:24:48.930Z,78.88
2022-12-15T07:27:35.764Z,79.76
2022-12-15T07:30:19.065Z,79.27
2022-12-15T07:32:38.481Z,79.20
2022-12-15T07:34:40.713Z,78.65
2022-12-15T07:36:54.934Z,78.01
2022-12-15T07:39:01.534Z,77.70
2022-12-15T07:41:09.741Z,77.58
2022-12-15T07:43:13.732Z,78.11
2022-12-15T07:45:19.673Z,77.39
2022-12-15T07:47:26.198Z,77.06
2022-12-15T07:50:03.077Z,77.14
2022-12-15T07:52:05.169Z,77.26
2022-12-15T07:54:17.975Z,77.26
2022-12-15T07:56:20.682Z,77.31
2022-12-15T07:58:34.926Z,76.68
2022-12-15T08:00:48.606Z,77.35
2022-12-15T08:02:56.052Z,77.39
2022-12-15T08:05:19.924Z,76.83
2022-12-15T08:07:33.231Z,76.56
2022-12-15T08:10:13.815Z,77.10
2022-12-15T08:15:59.397Z,76.71
2022-12-15T08:18:12.996Z,76.71
2022-12-15T08:21:11.079Z,76.05
2022-12-15T08:23:22.107Z,75.96
2022-12-15T08:26:07.984Z,76.13
2022-12-15T08:31:34.082Z,75.69
2022-12-15T08:34:01.344Z,76.40
2022-12-15T08:36:20.511Z,75.60
2022-12-15T08:39:06.841Z,76.02
2022-12-15T08:44:42.787Z,76.09
2022-12-15T08:47:33.102Z,75.93
2022-12-15T08:49:46.289Z,75.88
2022-12-15T08:52:07.253Z,76.21
2022-12-15T08:54:53.760Z,76.10
2022-12-15T08:57:14.664Z,75.75
2022-12-15T08:59:25.640Z,75.81
2022-12-15T09:01:32.625Z,75.41
2022-12-15T09:07:15.937Z,76.08
2022-12-15T09:09:19.294Z,75.44
2022-12-15T09:11:23.236Z,75.92
2022-12-15T09:13:36.218Z,75.63
2022-12-15T09:16:08.352Z,75.62
2022-12-15T09:18:13.450Z,74.87
2022-12-15T09:20:17.993Z,75.12
2022-12-15T09:22:25.364Z,75.07
2022-12-15T09:24:35.309Z,74.10
2022-12-15T09:26:45.530Z,74.52
2022-12-15T09:28:55.102Z,74.11
2022-12-15T09:31:07.743Z,73.89
2022-12-15T09:33:17.572Z,74.09
2022-12-15T09:35:20.976Z,74.72
2022-12-15T09:37:34.843Z,74.22
2022-12-15T09:39:38.160Z,74.29
2022-12-15T09:41:41.968Z,74.18
2022-12-15T09:44:22.232Z,74.43
2022-12-15T09:49:57.074Z,73.97
2022-12-15T09:52:13.717Z,74.20
2022-12-15T09:54:15.796Z,73.96
2022-12-15T09:56:27.411Z,74.50
2022-12-15T09:58:47.529Z,74.22
2022-12-15T10:03:54.750Z,74.96
2022-12-15T10:06:24.823Z,74.26
2022-12-15T10:08:47.222Z,74.95
2022-12-15T10:11:04.225Z,74.34
2022-12-15T10:13:26.577Z,74.04
2022-12-15T10:15:41.397Z,73.88
2022-12-15T10:18:11.806Z,73.52
2022-12-15T10:20:26.743Z,73.14
2022-12-15T10:22:38.049Z,75.83
2022-12-15T10:27:49.628Z,77.66
2022-12-15T10:30:15.901Z,78.05
2022-12-15T10:32:44.477Z,77.48
2022-12-15T10:34:53.027Z,78.62
2022-12-15T10:37:03.449Z,78.10
2022-12-15T10:39:05.594Z,78.16
2022-12-15T10:41:19.970Z,77.57
2022-12-15T10:43:40.747Z,76.46
2022-12-15T10:46:04.072Z,75.69
2022-12-15T10:48:18.322Z,75.57
2022-12-15T10:50:28.935Z,75.04
2022-12-15T10:52:52.857Z,74.46
2022-12-15T10:55:39.161Z,73.74
2022-12-15T10:57:59.158Z,74.00
2022-12-15T11:00:23.014Z,74.63
2022-12-15T11:02:34.416Z,74.58
2022-12-15T11:05:16.441Z,73.92
2022-12-15T11:07:48.790Z,73.82
2022-12-15T11:10:09.400Z,74.57
2022-12-15T11:12:42.431Z,73.94
2022-12-15T11:14:56.477Z,74.28
2022-12-15T11:17:07.394Z,73.90
2022-12-15T11:19:20.928Z,73.78
2022-12-15T11:25:18.966Z,74.54
2022-12-15T11:27:49.748Z,74.07
2022-12-15T11:30:03.180Z,74.13
2022-12-15T11:32:07.447Z,74.06
2022-12-15T11:34:42.018Z,74.51
2022-12-15T11:37:29.363Z,74.97
2022-12-15T11:39:45.667Z,75.15
2022-12-15T11:42:04.778Z,74.56
2022-12-15T11:44:30.880Z,74.92
2022-12-15T11:46:55.661Z,74.52
2022-12-15T11:49:41.514Z,75.07
2022-12-15T11:52:27.176Z,75.09
2022-12-15T11:54:50.952Z,75.14
2022-12-15T12:00:23.895Z,75.19
2022-12-15T12:03:04.348Z,74.96
2022-12-15T12:05:25.059Z,74.79
2022-12-15T12:08:15.349Z,74.91
2022-12-15T12:10:51.298Z,74.24
2022-12-15T12:13:22.830Z,74.83
2022-12-15T12:15:47.705Z,75.03
2022-12-15T12:18:06.616Z,74.88
2022-12-15T12:20:15.049Z,74.55
2022-12-15T12:22:39.904Z,74.79
2022-12-15T12:25:09.622Z,75.21
2022-12-15T12:27:28.311Z,75.05
2022-12-15T12:29:36.170Z,74.92
2022-12-15T12:32:00.570Z,74.96
2022-12-15T12:35:30.317Z,75.30
2022-12-15T12:37:43.494Z,75.53
2022-12-15T12:39:45.790Z,75.43
2022-12-15T12:45:41.036Z,75.07
2022-12-15T12:48:02.029Z,74.89
2022-12-15T12:50:33.822Z,75.26
2022-12-15T12:52:38.395Z,75.30
2022-12-15T12:55:01.017Z,74.90
2022-12-15T12:57:10.795Z,74.60
2022-12-15T12:59:31.265Z,75.05
2022-12-15T13:01:35.615Z,73.97
2022-12-15T13:03:42.441Z,74.55
2022-12-15T13:05:50.413Z,74.68
2022-12-15T13:08:29.861Z,74.55
2022-12-15T13:13:56.507Z,74.36
2022-12-15T13:16:40.431Z,74.52
2022-12-15T13:19:11.927Z,74.41
2022-12-15T13:21:44.005Z,74.80
2022-12-15T13:26:48.809Z,74.79
2022-12-15T13:29:37.776Z,75.22
2022-12-15T13:31:54.226Z,75.78
2022-12-15T13:34:01.744Z,75.31
2022-12-15T13:36:38.863Z,75.28
2022-12-15T13:39:23.759Z,74.63
2022-12-15T13:42:31.479Z,74.92
2022-12-15T13:44:52.054Z,75.37
2022-12-15T13:47:30.210Z,75.07
2022-12-15T13:49:42.064Z,75.71
2022-12-15T13:52:44.263Z,75.79
2022-12-15T13:54:56.432Z,75.32
2022-12-15T13:57:20.702Z,76.02
2022-12-15T14:00:19.424Z,76.42
2022-12-15T14:02:32.709Z,76.86
2022-12-15T14:04:35.756Z,76.54
2022-12-15T14:06:47.004Z,76.78
2022-12-15T14:09:17.251Z,76.96
2022-12-15T14:11:51.391Z,77.21
2022-12-15T14:13:52.369Z,77.64
2022-12-15T14:16:24.888Z,77.15
2022-12-15T14:18:37.112Z,77.70
2022-12-15T14:21:40.519Z,76.94
2022-12-15T14:24:37.471Z,77.42
2022-12-15T14:26:32.079Z,77.63
2022-12-15T14:29:15.698Z,77.72
2022-12-15T14:31:30.289Z,77.87
2022-12-15T14:34:12.346Z,78.42
2022-12-15T14:42:23.608Z,77.52
2022-12-15T14:44:37.847Z,77.21
2022-12-15T14:46:49.773Z,77.70
2022-12-15T14:49:29.232Z,77.71
2022-12-15T14:52:07.214Z,78.16
2022-12-15T14:54:49.903Z,77.99
2022-12-15T14:57:09.472Z,77.71
2022-12-15T14:59:34.160Z,78.07
2022-12-15T15:02:16.435Z,77.61
2022-12-15T15:03:16.358Z,74.73
2022-12-15T15:04:32.081Z,77.53
2022-12-15T15:06:40.414Z,77.76
2022-12-15T15:08:49.749Z,77.51
2022-12-15T15:10:57.995Z,77.67
2022-12-15T15:13:00.904Z,77.55
2022-12-15T15:15:06.220Z,77.96
2022-12-15T15:17:17.130Z,77.53
2022-12-15T15:19:22.952Z,77.27
2022-12-15T15:21:28.643Z,77.34
2022-12-15T15:23:39.902Z,76.96
2022-12-15T15:25:56.933Z,77.33
2022-12-15T15:28:27.468Z,77.11
2022-12-15T15:30:30.646Z,76.88
2022-12-15T15:32:32.743Z,77.30
2022-12-15T15:34:39.708Z,77.59
2022-12-15T15:36:41.787Z,77.03
2022-12-15T15:38:54.664Z,76.89
2022-12-15T15:41:01.119Z,77.22
2022-12-15T15:43:14.452Z,77.18
2022-12-15T15:45:16.524Z,77.04
2022-12-15T15:47:47.417Z,77.16
2022-12-15T15:49:56.056Z,76.82
2022-12-15T15:51:59.117Z,76.36
2022-12-15T15:54:25.335Z,76.75
2022-12-15T15:56:37.537Z,76.65
2022-12-15T15:58:50.861Z,76.38
2022-12-15T16:00:58.993Z,76.37
2022-12-15T16:03:03.166Z,75.82
2022-12-15T16:05:21.240Z,76.13
2022-12-15T16:07:29.348Z,76.18
2022-12-15T16:09:37.485Z,76.24
2022-12-15T16:11:41.548Z,76.36
2022-12-15T16:13:51.533Z,76.45
2022-12-15T16:15:55.616Z,76.30
2022-12-15T16:17:58.229Z,76.49
2022-12-15T16:20:22.324Z,75.53
2022-12-15T16:22:24.947Z,75.98
2022-12-15T16:24:28.028Z,76.14
2022-12-15T16:26:33.564Z,76.20
2022-12-15T16:28:36.915Z,75.85
2022-12-15T16:30:43.768Z,76.15
2022-12-15T16:32:47.882Z,76.11
2022-12-15T16:34:51.765Z,75.77
2022-12-15T16:36:58.172Z,75.95
2022-12-15T16:39:10.862Z,75.43
2022-12-15T16:41:23.740Z,76.33
2022-12-15T16:43:47.762Z,75.96
2022-12-15T16:46:00.460Z,75.81
2022-12-15T16:48:03.817Z,75.68
2022-12-15T16:50:20.770Z,75.60
2022-12-15T16:52:34.795Z,75.50
2022-12-15T16:54:51.374Z,75.47
2022-12-15T16:57:01.478Z,75.34
2022-12-15T16:59:31.555Z,74.38
2022-12-15T17:01:26.822Z,74.47
2022-12-15T17:03:33.622Z,75.09
2022-12-15T17:05:40.872Z,74.90
2022-12-15T17:07:56.345Z,75.11
2022-12-15T17:10:07.362Z,74.81
2022-12-15T17:12:19.170Z,74.92
2022-12-15T17:14:22.141Z,75.13
2022-12-15T17:16:27.365Z,74.62
2022-12-15T17:18:30.757Z,75.73
2022-12-15T17:20:33.561Z,75.80
2022-12-15T17:22:35.727Z,76.69
2022-12-15T17:24:53.106Z,76.09
2022-12-15T17:27:01.399Z,76.41
2022-12-15T17:29:13.572Z,76.09
2022-12-15T17:31:21.801Z,75.70
2022-12-15T17:33:34.230Z,75.98
2022-12-15T17:35:49.758Z,76.56
2022-12-15T17:37:58.302Z,76.18
2022-12-15T17:40:00.846Z,76.03
2022-12-15T17:42:21.677Z,76.68
2022-12-15T17:44:40.140Z,76.78
2022-12-15T17:46:45.876Z,76.46
2022-12-15T17:48:49.407Z,76.53
2022-12-15T17:51:14.579Z,77.07
2022-12-15T17:53:31.196Z,77.04
2022-12-15T17:55:37.219Z,76.96
2022-12-15T17:57:40.269Z,77.16
2022-12-15T17:59:50.584Z,77.31
2022-12-15T18:01:57.906Z,76.53
2022-12-15T18:04:05.557Z,77.06
2022-12-15T18:06:15.859Z,77.44
2022-12-15T18:08:28.462Z,77.20
2022-12-15T18:10:41.408Z,76.82
2022-12-15T18:12:44.402Z,77.46
2022-12-15T18:14:48.045Z,77.82
2022-12-15T18:16:56.936Z,77.65
2022-12-15T18:19:02.461Z,77.90
2022-12-15T18:21:14.648Z,77.37
2022-12-15T18:23:27.152Z,78.34
2022-12-15T18:25:32.615Z,78.15
2022-12-15T18:27:51.124Z,78.15
2022-12-15T18:29:57.219Z,77.75
2022-12-15T18:32:00.008Z,78.04
2022-12-15T18:34:22.248Z,77.58
2022-12-15T18:36:25.003Z,78.07
2022-12-15T18:38:31.330Z,78.10
2022-12-15T18:40:40.842Z,77.79
2022-12-15T18:42:45.480Z,77.85
2022-12-15T18:44:53.684Z,77.54
2022-12-15T18:47:11.608Z,77.87
2022-12-15T18:49:39.747Z,78.00
2022-12-15T18:51:42.877Z,77.70
2022-12-15T18:53:54.673Z,77.98
2022-12-15T18:55:58.089Z,77.50
2022-12-15T18:58:23.070Z,76.51
2022-12-15T19:00:30.695Z,76.45
2022-12-15T19:02:36.742Z,76.93
2022-12-15T19:04:39.291Z,76.53
2022-12-15T19:06:43.661Z,76.41
2022-12-15T19:08:47.044Z,75.89
2022-12-15T19:10:58.821Z,76.69
2022-12-15T19:13:13.768Z,76.60
2022-12-15T19:15:20.539Z,75.74
2022-12-15T19:17:43.267Z,75.58
2022-12-15T19:20:06.772Z,75.71
2022-12-15T19:22:32.360Z,75.70
2022-12-15T19:24:56.570Z,76.32
2022-12-15T19:27:12.921Z,76.05
2022-12-15T19:29:21.618Z,76.14
2022-12-15T19:31:30.366Z,75.84
2022-12-15T19:33:33.823Z,74.93
2022-12-15T19:35:47.090Z,74.73
2022-12-15T19:37:51.305Z,74.82
2022-12-15T19:39:55.790Z,74.52
2022-12-15T19:42:17.635Z,74.03
2022-12-15T19:44:26.620Z,74.52
2022-12-15T19:46:35.584Z,74.94
2022-12-15T19:48:39.363Z,74.74
2022-12-15T19:50:44.910Z,75.06
2022-12-15T19:53:02.770Z,74.82
2022-12-15T19:55:26.327Z,73.50
2022-12-15T19:57:28.952Z,73.46
2022-12-15T19:59:46.032Z,73.17
2022-12-15T20:01:52.361Z,73.44
2022-12-15T20:04:13.307Z,74.26
2022-12-15T20:06:26.888Z,73.98
2022-12-15T20:08:37.546Z,73.29
2022-12-15T20:10:54.201Z,73.12
2022-12-15T20:13:06.211Z,73.46
2022-12-15T20:15:28.469Z,73.46
2022-12-15T20:17:32.618Z,73.10
2022-12-15T20:19:35.745Z,72.80
2022-12-15T20:21:43.522Z,72.06
2022-12-15T20:23:56.668Z,72.31
2022-12-15T20:26:01.968Z,72.51
2022-12-15T20:28:25.160Z,72.36
2022-12-15T20:30:43.230Z,72.25
2022-12-15T20:32:47.921Z,73.96
2022-12-15T20:34:57.196Z,74.36
2022-12-15T20:37:05.564Z,75.38
2022-12-15T20:39:26.137Z,75.36
2022-12-15T20:41:33.518Z,76.64
2022-12-15T20:43:37.058Z,75.98
2022-12-15T20:45:46.979Z,76.60
2022-12-15T20:47:58.534Z,76.91
2022-12-15T20:50:07.822Z,77.98
2022-12-15T20:52:20.106Z,78.21
2022-12-15T20:54:25.896Z,78.18
2022-12-15T20:56:42.812Z,78.45
2022-12-15T20:58:46.568Z,78.58
2022-12-15T21:00:51.855Z,78.39
2022-12-15T21:02:55.290Z,77.95
2022-12-15T21:05:00.664Z,78.87
2022-12-15T21:07:11.460Z,79.44
2022-12-15T21:09:16.590Z,80.73
2022-12-15T21:11:33.412Z,80.64
2022-12-15T21:13:51.223Z,80.15
2022-12-15T21:15:57.185Z,79.75
2022-12-15T21:18:40.602Z,80.30
2022-12-15T21:20:29.178Z,79.72
2022-12-15T21:22:34.224Z,79.40
2022-12-15T21:24:37.410Z,79.72
2022-12-15T21:26:47.247Z,78.19
2022-12-15T21:29:02.812Z,79.07
2022-12-15T21:31:13.063Z,78.77
2022-12-15T21:33:18.015Z,79.11
2022-12-15T21:35:22.366Z,79.37
2022-12-15T21:37:31.037Z,80.28
2022-12-15T21:39:37.435Z,79.39
2022-12-15T21:42:08.340Z,80.72
2022-12-15T21:44:14.253Z,78.70
2022-12-15T21:46:29.016Z,78.90
2022-12-15T21:48:55.506Z,79.53
2022-12-15T21:51:14.779Z,80.41
2022-12-15T21:53:17.837Z,80.26
2022-12-15T21:55:29.400Z,80.90
2022-12-15T21:57:32.259Z,80.63
2022-12-15T21:59:35.263Z,81.02
2022-12-15T22:01:38.427Z,80.11
2022-12-15T22:03:45.175Z,79.65
2022-12-15T22:05:48.067Z,77.86
2022-12-15T22:07:52.497Z,79.11
2022-12-15T22:09:56.404Z,78.33
2022-12-15T22:11:58.473Z,79.28
2022-12-15T22:14:15.317Z,78.09
2022-12-15T22:16:25.078Z,78.47
2022-12-15T22:18:27.123Z,79.72
2022-12-15T22:20:33.013Z,78.43
2022-12-15T22:22:51.789Z,78.30
2022-12-15T22:24:54.791Z,79.47
2022-12-15T22:26:57.746Z,79.08
2022-12-15T22:29:03.269Z,77.95
2022-12-15T22:31:05.343Z,78.10
2022-12-15T22:33:22.122Z,79.72
2022-12-15T22:35:26.836Z,79.12
2022-12-15T22:37:29.793Z,79.25
2022-12-15T22:39:32.124Z,79.54
2022-12-15T22:41:36.055Z,79.37
2022-12-15T22:43:41.814Z,78.25
2022-12-15T22:45:43.704Z,79.04
2022-12-15T22:47:47.499Z,78.84
2022-12-15T22:49:49.448Z,78.55
2022-12-15T22:51:51.448Z,77.96
2022-12-15T22:53:53.359Z,78.57
2022-12-15T22:55:57.051Z,78.42
2022-12-15T22:58:03.273Z,78.52
2022-12-15T23:00:09.807Z,78.47
2022-12-15T23:02:12.284Z,77.65
2022-12-15T23:04:14.619Z,78.67
2022-12-15T23:06:16.476Z,77.57
2022-12-15T23:08:18.411Z,77.98
2022-12-15T23:10:39.572Z,77.70
2022-12-15T23:12:41.746Z,78.57
2022-12-15T23:15:04.842Z,78.21
2022-12-15T23:17:07.295Z,77.82
2022-12-15T23:19:24.020Z,77.86
2022-12-15T23:21:26.800Z,77.94
2022-12-15T23:23:32.423Z,77.56
2022-12-15T23:25:34.860Z,77.86
2022-12-15T23:27:36.868Z,78.13
2022-12-15T23:29:38.759Z,77.52
2022-12-15T23:31:41.631Z,77.92
2022-12-15T23:33:43.797Z,77.72
2022-12-15T23:35:46.672Z,78.25
2022-12-15T23:37:48.546Z,77.86
2022-12-15T23:39:50.418Z,77.32
2022-12-15T23:41:53.674Z,77.80
2022-12-15T23:43:55.803Z,77.92
2022-12-15T23:46:06.299Z,77.36
2022-12-15T23:48:09.886Z,78.01
2022-12-15T23:50:12.039Z,77.69
2022-12-15T23:52:15.083Z,77.69
2022-12-15T23:54:17.014Z,77.77
2022-12-15T23:56:24.402Z,77.49
2022-12-15T23:58:26.228Z,77.77
